createdAt,value
2023-05-14T00:01:24.365Z,100017.19
2023-05-14T00:03:51.964Z,99999.59
2023-05-14T00:06:19.300Z,99994.38
2023-05-14T00:08:46.388Z,100016.38
2023-05-14T00:11:13.569Z,100011.13
2023-05-14T00:13:40.588Z,100001.47
2023-05-14T00:16:07.719Z,99999.72
2023-05-14T00:18:34.996Z,99998.03
2023-05-14T00:21:02.025Z,99995.38
2023-05-14T00:23:29.075Z,100013.88
2023-05-14T00:25:56.356Z,100015.69
2023-05-14T00:28:23.443Z,100015.69
2023-05-14T00:30:51.240Z,100018.34
2023-05-14T00:33:20.065Z,100000.78
2023-05-14T00:35:47.207Z,100024.53
2023-05-14T00:38:17.289Z,100028.06
2023-05-14T00:40:46.029Z,100000.81
2023-05-14T00:43:13.322Z,100007.84
2023-05-14T00:45:40.941Z,100019.31
2023-05-14T00:48:08.513Z,100020.19
2023-05-14T00:50:36.047Z,100028.13
2023-05-14T00:53:03.210Z,100017.56
2023-05-14T00:55:31.214Z,100007.00
2023-05-14T00:57:59.904Z,100020.22
2023-05-14T01:00:27.148Z,100025.50
2023-05-14T01:02:54.393Z,100022.88
2023-05-14T01:05:25.883Z,100022.00
2023-05-14T01:08:09.593Z,100023.78
2023-05-14T01:10:49.928Z,100021.13
2023-05-14T01:13:23.349Z,100026.41
2023-05-14T01:15:51.693Z,100032.59
2023-05-14T01:18:19.719Z,100009.72
2023-05-14T01:20:51.712Z,100027.34
2023-05-14T01:23:18.810Z,100028.22
2023-05-14T01:25:46.401Z,100035.28
2023-05-14T01:28:20.798Z,100034.38
2023-05-14T01:31:17.230Z,100030.00
2023-05-14T01:33:47.492Z,100036.16
2023-05-14T01:36:14.664Z,100032.66
2023-05-14T01:38:45.909Z,100045.84
2023-05-14T01:41:15.087Z,100038.81
2023-05-14T01:43:42.655Z,100014.19
2023-05-14T01:46:10.113Z,100052.88
2023-05-14T01:48:38.004Z,100044.97
2023-05-14T01:51:05.177Z,100058.19
2023-05-14T01:53:35.042Z,100052.88
2023-05-14T01:56:02.658Z,100047.63
2023-05-14T01:58:29.897Z,100037.91
2023-05-14T02:00:57.007Z,100066.09
2023-05-14T02:03:24.127Z,100056.44
2023-05-14T02:05:51.256Z,100058.19
2023-05-14T02:08:18.347Z,100046.72
2023-05-14T02:10:45.568Z,100047.63
2023-05-14T02:13:12.649Z,100049.38
2023-05-14T02:15:39.875Z,100064.31
2023-05-14T02:18:07.492Z,100061.69
2023-05-14T02:20:34.715Z,100036.19
2023-05-14T02:23:01.778Z,100056.41
2023-05-14T02:25:28.827Z,100075.75
2023-05-14T02:27:55.889Z,100081.94
2023-05-14T02:30:23.277Z,100075.78
2023-05-14T02:32:50.640Z,100071.38
2023-05-14T02:35:17.858Z,100082.81
2023-05-14T02:37:45.009Z,100075.78
2023-05-14T02:40:12.232Z,100082.81
2023-05-14T02:42:39.438Z,100064.34
2023-05-14T02:45:07.127Z,100076.63
2023-05-14T02:47:37.480Z,100103.03
2023-05-14T02:50:06.475Z,100090.72
2023-05-14T02:52:33.537Z,100096.00
2023-05-14T02:55:00.702Z,100096.00
2023-05-14T02:57:27.981Z,100079.28
2023-05-14T02:59:55.130Z,100096.00
2023-05-14T03:02:22.670Z,100079.28
2023-05-14T03:04:50.742Z,100100.41
2023-05-14T03:07:17.868Z,100094.25
2023-05-14T03:09:45.384Z,100086.34
2023-05-14T03:12:14.503Z,100103.06
2023-05-14T03:14:41.762Z,100088.09
2023-05-14T03:17:09.134Z,100112.75
2023-05-14T03:19:36.297Z,100106.56
2023-05-14T03:22:03.684Z,100115.38
2023-05-14T03:24:31.628Z,100106.59
2023-05-14T03:26:58.612Z,100094.25
2023-05-14T03:29:25.770Z,100107.44
2023-05-14T03:31:53.171Z,100106.56
2023-05-14T03:34:20.393Z,100110.06
2023-05-14T03:36:47.584Z,100104.81
2023-05-14T03:39:20.004Z,100116.25
2023-05-14T03:41:48.313Z,100093.34
2023-05-14T03:44:15.829Z,100121.50
2023-05-14T03:46:42.924Z,100109.19
2023-05-14T03:49:10.674Z,100103.91
2023-05-14T03:51:37.890Z,100112.72
2023-05-14T03:54:06.695Z,100100.41
2023-05-14T03:56:33.874Z,100119.75
2023-05-14T03:59:00.945Z,100118.84
2023-05-14T04:01:28.104Z,100127.63
2023-05-14T04:03:55.645Z,100126.75
2023-05-14T04:06:22.972Z,100132.06
2023-05-14T04:08:50.007Z,100121.47
2023-05-14T04:11:17.142Z,100133.84
2023-05-14T04:13:44.182Z,100132.91
2023-05-14T04:16:11.421Z,100123.22
2023-05-14T04:18:38.589Z,100123.19
2023-05-14T04:21:05.863Z,100123.13
2023-05-14T04:23:32.878Z,100122.97
2023-05-14T04:26:00.175Z,100138.63
2023-05-14T04:28:27.248Z,100139.22
2023-05-14T04:30:54.472Z,100117.00
2023-05-14T04:33:21.509Z,100127.38
2023-05-14T04:35:48.572Z,100131.88
2023-05-14T04:38:15.819Z,100107.97
2023-05-14T04:40:42.948Z,100134.94
2023-05-14T04:43:10.848Z,100128.44
2023-05-14T04:45:37.998Z,100132.44
2023-05-14T04:48:06.065Z,100127.59
2023-05-14T04:50:33.175Z,100119.28
2023-05-14T04:53:00.333Z,100136.13
2023-05-14T04:55:27.780Z,100138.25
2023-05-14T04:57:55.020Z,100131.13
2023-05-14T05:00:22.886Z,100130.47
2023-05-14T05:02:50.202Z,100133.56
2023-05-14T05:05:17.362Z,100122.56
2023-05-14T05:07:44.435Z,100127.66
2023-05-14T05:10:11.511Z,100118.56
2023-05-14T05:12:38.758Z,100136.22
2023-05-14T05:15:06.445Z,100125.34
2023-05-14T05:17:35.962Z,100121.84
2023-05-14T05:20:04.892Z,100125.34
2023-05-14T05:22:32.176Z,100133.59
2023-05-14T05:24:59.953Z,100142.56
2023-05-14T05:27:27.150Z,100121.66
2023-05-14T05:29:54.201Z,100132.59
2023-05-14T05:32:21.419Z,100134.50
2023-05-14T05:34:48.492Z,100125.06
2023-05-14T05:37:15.622Z,100126.50
2023-05-14T05:39:42.848Z,100128.75
2023-05-14T05:42:10.634Z,100110.22
2023-05-14T05:44:37.798Z,100120.03
2023-05-14T05:47:05.264Z,100121.41
2023-05-14T05:49:32.514Z,100119.91
2023-05-14T05:51:59.619Z,100107.13
2023-05-14T05:54:27.369Z,100110.69
2023-05-14T05:56:54.459Z,100114.63
2023-05-14T05:59:21.768Z,100101.56
2023-05-14T06:01:48.873Z,100112.28
2023-05-14T06:04:16.204Z,100104.09
2023-05-14T06:06:43.268Z,100102.28
2023-05-14T06:09:10.503Z,100112.00
2023-05-14T06:11:37.520Z,100110.31
2023-05-14T06:14:04.823Z,100101.91
2023-05-14T06:16:32.070Z,100116.78
2023-05-14T06:18:59.400Z,100094.91
2023-05-14T06:21:26.650Z,100120.16
2023-05-14T06:23:53.774Z,100094.56
2023-05-14T06:26:21.388Z,100120.50
2023-05-14T06:28:48.527Z,100097.63
2023-05-14T06:31:15.709Z,100114.28
2023-05-14T06:33:42.783Z,100108.41
2023-05-14T06:36:10.226Z,100106.53
2023-05-14T06:38:37.667Z,100110.13
2023-05-14T06:41:04.875Z,100108.06
2023-05-14T06:43:32.097Z,100102.75
2023-05-14T06:45:59.233Z,100103.69
2023-05-14T06:48:27.971Z,100102.75
2023-05-14T06:50:55.731Z,100102.63
2023-05-14T06:53:23.038Z,100098.94
2023-05-14T06:55:50.212Z,100101.13
2023-05-14T06:58:17.283Z,100088.41
2023-05-14T07:00:44.487Z,100101.44
2023-05-14T07:03:11.644Z,100101.84
2023-05-14T07:05:40.808Z,100114.69
2023-05-14T07:08:07.947Z,100111.75
2023-05-14T07:10:35.068Z,100127.66
2023-05-14T07:13:03.375Z,100101.16
2023-05-14T07:15:30.522Z,100124.53
2023-05-14T07:17:57.722Z,100131.34
2023-05-14T07:20:25.320Z,100136.91
2023-05-14T07:22:53.236Z,100129.31
2023-05-14T07:25:20.402Z,100136.72
2023-05-14T07:27:47.540Z,100121.19
2023-05-14T07:30:15.288Z,100140.81
2023-05-14T07:32:42.742Z,100122.16
2023-05-14T07:35:11.822Z,100111.59
2023-05-14T07:37:39.162Z,100137.34
2023-05-14T07:40:07.214Z,100128.47
2023-05-14T07:42:37.095Z,100128.91
2023-05-14T07:45:06.201Z,100140.44
2023-05-14T07:47:34.806Z,100122.91
2023-05-14T07:50:02.386Z,100122.88
2023-05-14T07:52:33.666Z,100122.59
2023-05-14T07:55:01.588Z,100088.59
2023-05-14T07:57:32.902Z,100129.94
2023-05-14T08:00:00.054Z,100124.47
2023-05-14T08:02:28.476Z,100123.09
2023-05-14T08:04:55.744Z,100132.16
2023-05-14T08:07:22.930Z,100133.88
2023-05-14T08:09:49.931Z,100125.91
2023-05-14T08:12:17.101Z,100128.78
2023-05-14T08:14:44.227Z,100122.66
2023-05-14T08:17:11.564Z,100119.63
2023-05-14T08:19:38.659Z,100124.84
2023-05-14T08:22:06.089Z,100124.69
2023-05-14T08:24:33.097Z,100112.78
2023-05-14T08:27:00.627Z,100106.19
2023-05-14T08:29:27.893Z,100113.00
2023-05-14T08:31:55.166Z,100116.16
2023-05-14T08:34:22.660Z,100123.69
2023-05-14T08:36:49.657Z,100122.50
2023-05-14T08:39:16.713Z,100118.81
2023-05-14T08:41:45.270Z,100096.94
2023-05-14T08:44:18.595Z,100117.97
2023-05-14T08:46:46.169Z,100125.34
2023-05-14T08:49:40.934Z,100123.84
2023-05-14T08:52:09.811Z,100118.88
2023-05-14T08:54:37.002Z,100128.13
2023-05-14T08:57:05.299Z,100115.47
2023-05-14T08:59:32.532Z,100130.88
2023-05-14T09:02:04.585Z,100132.97
2023-05-14T09:04:33.182Z,100140.06
2023-05-14T09:07:02.328Z,100130.09
2023-05-14T09:09:29.793Z,100131.47
2023-05-14T09:11:56.931Z,100118.72
2023-05-14T09:14:24.441Z,100118.38
2023-05-14T09:16:51.944Z,100131.81
2023-05-14T09:19:19.915Z,100128.13
2023-05-14T09:21:48.811Z,100124.31
2023-05-14T09:24:21.288Z,100137.75
2023-05-14T09:26:53.982Z,100121.84
2023-05-14T09:29:21.254Z,100128.78
2023-05-14T09:31:51.904Z,100131.72
2023-05-14T09:34:30.756Z,100116.19
2023-05-14T09:37:02.886Z,100108.91
2023-05-14T09:39:31.329Z,100099.88
2023-05-14T09:41:59.050Z,100117.78
2023-05-14T09:44:26.638Z,100117.25
2023-05-14T09:46:54.597Z,100119.38
2023-05-14T09:49:22.512Z,100112.19
2023-05-14T09:51:50.839Z,100119.66
2023-05-14T09:54:17.983Z,100112.47
2023-05-14T09:56:45.158Z,100119.13
2023-05-14T09:59:12.389Z,100115.16
2023-05-14T10:01:42.792Z,100115.06
2023-05-14T10:04:11.404Z,100118.41
2023-05-14T10:06:39.634Z,100122.91
2023-05-14T10:09:14.177Z,100111.09
2023-05-14T10:11:45.395Z,100110.03
2023-05-14T10:14:39.516Z,100095.44
2023-05-14T10:17:07.993Z,100115.56
2023-05-14T10:19:36.565Z,100112.38
2023-05-14T10:25:03.368Z,100113.09
2023-05-14T10:27:32.183Z,100129.84
2023-05-14T10:29:59.411Z,100107.22
2023-05-14T10:32:26.699Z,100119.03
2023-05-14T10:34:55.839Z,100089.63
2023-05-14T10:37:26.090Z,100117.47
2023-05-14T10:40:02.355Z,100105.41
2023-05-14T10:42:44.685Z,100107.44
2023-05-14T10:45:14.327Z,100105.03
2023-05-14T10:47:48.931Z,100099.66
2023-05-14T10:50:16.438Z,100093.97
2023-05-14T10:52:44.651Z,100098.91
2023-05-14T10:55:16.959Z,100098.69
2023-05-14T10:57:46.388Z,100087.00
2023-05-14T11:00:14.916Z,100097.22
2023-05-14T11:02:44.452Z,100087.25
2023-05-14T11:05:17.821Z,100094.69
2023-05-14T11:07:47.833Z,100099.44
2023-05-14T11:10:17.118Z,100104.06
2023-05-14T11:12:46.912Z,100095.94
2023-05-14T11:15:19.629Z,100100.09
2023-05-14T11:17:48.876Z,100095.44
2023-05-14T11:20:17.149Z,100089.41
2023-05-14T11:22:46.040Z,100092.72
2023-05-14T11:25:15.033Z,100086.69
2023-05-14T11:27:44.579Z,100087.59
2023-05-14T11:30:16.733Z,100098.41
2023-05-14T11:32:48.598Z,100100.13
2023-05-14T11:35:17.536Z,100081.31
2023-05-14T11:37:52.375Z,100104.13
2023-05-14T11:40:19.843Z,100100.16
2023-05-14T11:42:47.200Z,100101.78
2023-05-14T11:45:24.602Z,100086.31
2023-05-14T11:47:53.719Z,100105.88
2023-05-14T11:50:24.820Z,100100.00
2023-05-14T11:52:57.117Z,100097.59
2023-05-14T11:55:24.432Z,100086.09
2023-05-14T11:57:51.873Z,100097.94
2023-05-14T12:00:22.187Z,100079.56
2023-05-14T12:02:50.295Z,100086.09
2023-05-14T12:05:18.706Z,100070.97
2023-05-14T12:07:46.403Z,100087.25
2023-05-14T12:10:14.129Z,100098.03
2023-05-14T12:12:44.959Z,100099.19
2023-05-14T12:15:13.709Z,100085.44
2023-05-14T12:17:41.758Z,100096.31
2023-05-14T12:20:13.725Z,100089.63
2023-05-14T12:22:42.224Z,100095.31
2023-05-14T12:25:13.862Z,100085.53
2023-05-14T12:27:44.910Z,100098.81
2023-05-14T12:30:21.440Z,100085.38
2023-05-14T12:32:52.857Z,100105.75
2023-05-14T12:35:21.603Z,100098.50
2023-05-14T12:37:48.849Z,100098.88
2023-05-14T12:40:15.928Z,100071.38
2023-05-14T12:42:43.093Z,100074.84
2023-05-14T12:45:11.332Z,100094.94
2023-05-14T12:47:38.501Z,100106.78
2023-05-14T12:50:06.376Z,100103.19
2023-05-14T12:52:38.301Z,100098.91
2023-05-14T12:55:07.890Z,100085.44
2023-05-14T12:57:35.755Z,100110.25
2023-05-14T13:00:07.185Z,100108.91
2023-05-14T13:02:42.741Z,100094.78
2023-05-14T13:05:12.307Z,100087.41
2023-05-14T13:07:39.612Z,100088.94
2023-05-14T13:10:07.239Z,100097.13
2023-05-14T13:12:34.694Z,100097.94
2023-05-14T13:15:02.098Z,100072.53
2023-05-14T13:17:33.880Z,100088.63
2023-05-14T13:20:01.109Z,100093.53
2023-05-14T13:22:28.252Z,100090.66
2023-05-14T13:24:55.471Z,100084.72
2023-05-14T13:27:22.634Z,100100.41
2023-05-14T13:29:49.862Z,100087.34
2023-05-14T13:32:16.990Z,100106.06
2023-05-14T13:34:44.304Z,100096.81
2023-05-14T13:37:11.773Z,100090.16
2023-05-14T13:39:40.897Z,100118.09
2023-05-14T13:42:08.665Z,100110.50
2023-05-14T13:44:36.364Z,100120.09
2023-05-14T13:47:04.187Z,100113.66
2023-05-14T13:49:31.232Z,100105.34
2023-05-14T13:51:58.510Z,100106.38
2023-05-14T13:54:25.694Z,100082.59
2023-05-14T13:56:52.764Z,100096.38
2023-05-14T13:59:20.682Z,100112.66
2023-05-14T14:01:49.756Z,100114.34
2023-05-14T14:04:17.106Z,100095.50
2023-05-14T14:06:44.266Z,100104.19
2023-05-14T14:09:13.599Z,100096.28
2023-05-14T14:11:41.263Z,100107.97
2023-05-14T14:14:08.440Z,100107.13
2023-05-14T14:16:36.391Z,100095.91
2023-05-14T14:19:03.930Z,100111.22
2023-05-14T14:21:31.942Z,100113.19
2023-05-14T14:23:59.260Z,100104.44
2023-05-14T14:26:28.019Z,100107.28
2023-05-14T14:28:55.773Z,100087.97
2023-05-14T14:31:23.157Z,100100.63
2023-05-14T14:33:50.488Z,100098.91
2023-05-14T14:36:17.871Z,100103.59
2023-05-14T14:38:44.911Z,100103.97
2023-05-14T14:41:12.423Z,100107.97
2023-05-14T14:43:41.190Z,100113.66
2023-05-14T14:46:09.537Z,100105.03
2023-05-14T14:48:40.109Z,100105.28
2023-05-14T14:51:08.668Z,100098.69
2023-05-14T14:53:37.318Z,100112.88
2023-05-14T14:56:05.033Z,100114.81
2023-05-14T14:58:32.864Z,100108.00
2023-05-14T15:01:01.298Z,100115.19
2023-05-14T15:03:30.080Z,100110.00
2023-05-14T15:05:57.499Z,100110.16
2023-05-14T15:08:28.666Z,100108.44
2023-05-14T15:10:56.937Z,100084.03
2023-05-14T15:13:24.759Z,100118.31
2023-05-14T15:15:52.713Z,100114.75
2023-05-14T15:18:20.104Z,100103.38
2023-05-14T15:20:47.362Z,100114.81
2023-05-14T15:23:14.705Z,100099.94
2023-05-14T15:25:42.084Z,100093.81
2023-05-14T15:28:09.254Z,100111.34
2023-05-14T15:30:36.591Z,100102.47
2023-05-14T15:33:03.952Z,100105.25
2023-05-14T15:35:31.126Z,100109.09
2023-05-14T15:37:58.304Z,100082.75
2023-05-14T15:40:27.628Z,100102.28
2023-05-14T15:42:55.094Z,100083.03
2023-05-14T15:45:22.247Z,100111.25
2023-05-14T15:47:49.533Z,100084.84
2023-05-14T15:50:16.856Z,100094.63
2023-05-14T15:52:44.031Z,100109.81
2023-05-14T15:55:11.189Z,100097.63
2023-05-14T15:57:38.334Z,100093.47
2023-05-14T16:00:12.266Z,100106.97
2023-05-14T16:02:39.678Z,100110.56
2023-05-14T16:05:08.444Z,100084.28
2023-05-14T16:07:36.564Z,100108.94
2023-05-14T16:10:04.111Z,100110.78
2023-05-14T16:12:33.731Z,100114.44
2023-05-14T16:15:01.232Z,100111.91
2023-05-14T16:17:33.977Z,100090.81
2023-05-14T16:20:01.368Z,100112.81
2023-05-14T16:22:34.880Z,100111.16
2023-05-14T16:25:03.571Z,100112.25
2023-05-14T16:27:34.427Z,100090.50
2023-05-14T16:30:01.536Z,100108.16
2023-05-14T16:32:34.458Z,100119.72
2023-05-14T16:35:02.983Z,100114.59
2023-05-14T16:37:33.578Z,100124.34
2023-05-14T16:40:00.673Z,100117.53
2023-05-14T16:42:28.255Z,100130.00
2023-05-14T16:44:55.436Z,100127.47
2023-05-14T16:47:22.764Z,100123.13
2023-05-14T16:49:49.821Z,100121.50
2023-05-14T16:52:16.933Z,100121.63
2023-05-14T16:54:44.003Z,100141.06
2023-05-14T16:57:11.399Z,100135.94
2023-05-14T16:59:38.616Z,100130.84
2023-05-14T17:02:06.241Z,100140.56
2023-05-14T17:04:38.664Z,100144.13
2023-05-14T17:07:06.158Z,100155.66
2023-05-14T17:09:33.269Z,100135.47
2023-05-14T17:12:00.790Z,100130.09
2023-05-14T17:14:27.922Z,100141.50
2023-05-14T17:16:55.140Z,100157.41
2023-05-14T17:19:22.448Z,100160.97
2023-05-14T17:21:49.628Z,100153.09
2023-05-14T17:24:16.740Z,100148.72
2023-05-14T17:26:44.215Z,100153.19
2023-05-14T17:29:11.186Z,100150.63
2023-05-14T17:31:38.492Z,100163.06
2023-05-14T17:34:05.789Z,100154.34
2023-05-14T17:36:32.899Z,100147.34
2023-05-14T17:38:59.999Z,100155.31
2023-05-14T17:41:27.206Z,100165.06
2023-05-14T17:43:54.317Z,100154.56
2023-05-14T17:46:21.695Z,100157.28
2023-05-14T17:48:48.820Z,100165.25
2023-05-14T17:51:16.077Z,100172.34
2023-05-14T17:53:43.061Z,100169.75
2023-05-14T17:56:10.358Z,100167.16
2023-05-14T17:58:37.479Z,100184.81
2023-05-14T18:01:06.171Z,100183.91
2023-05-14T18:03:33.862Z,100179.53
2023-05-14T18:06:01.083Z,100163.69
2023-05-14T18:08:28.100Z,100172.47
2023-05-14T18:10:55.217Z,100178.66
2023-05-14T18:13:22.395Z,100187.47
2023-05-14T18:15:51.660Z,100167.22
2023-05-14T18:18:18.913Z,100175.19
2023-05-14T18:20:45.930Z,100179.59
2023-05-14T18:23:13.211Z,100164.63
2023-05-14T18:25:40.379Z,100196.34
2023-05-14T18:28:07.584Z,100200.75
2023-05-14T18:30:34.806Z,100176.97
2023-05-14T18:33:01.879Z,100195.44
2023-05-14T18:35:29.155Z,100183.16
2023-05-14T18:37:56.314Z,100195.44
2023-05-14T18:40:23.335Z,100197.22
2023-05-14T18:42:50.557Z,100191.94
2023-05-14T18:45:17.743Z,100185.78
2023-05-14T18:47:44.799Z,100172.56
2023-05-14T18:50:11.896Z,100177.00
2023-05-14T18:52:38.954Z,100162.00
2023-05-14T18:55:06.301Z,100184.91
2023-05-14T18:57:33.909Z,100170.81
2023-05-14T19:00:05.357Z,100194.59
2023-05-14T19:02:34.992Z,100175.22
2023-05-14T19:05:02.468Z,100195.47
2023-05-14T19:07:31.985Z,100184.03
2023-05-14T19:09:59.229Z,100172.59
2023-05-14T19:12:26.969Z,100190.22
2023-05-14T19:14:53.996Z,100183.16
2023-05-14T19:17:21.308Z,100191.97
2023-05-14T19:19:48.350Z,100159.38
2023-05-14T19:22:15.504Z,100177.84
2023-05-14T19:24:42.734Z,100195.50
2023-05-14T19:27:10.186Z,100198.09
2023-05-14T19:29:37.232Z,100196.34
2023-05-14T19:32:04.879Z,100201.66
2023-05-14T19:34:32.035Z,100185.78
2023-05-14T19:36:59.185Z,100187.56
2023-05-14T19:39:26.337Z,100186.69
2023-05-14T19:41:53.460Z,100211.34
2023-05-14T19:44:20.495Z,100198.13
2023-05-14T19:46:47.648Z,100205.19
2023-05-14T19:49:14.874Z,100195.50
2023-05-14T19:51:41.953Z,100204.28
2023-05-14T19:54:10.067Z,100204.28
2023-05-14T19:56:38.475Z,100210.47
2023-05-14T19:59:05.568Z,100179.63
2023-05-14T20:01:34.474Z,100207.81
2023-05-14T20:04:02.456Z,100180.50
2023-05-14T20:06:29.843Z,100213.09
2023-05-14T20:08:56.990Z,100188.41
2023-05-14T20:11:24.112Z,100204.25
2023-05-14T20:13:51.166Z,100198.09
2023-05-14T20:16:18.871Z,100200.72
2023-05-14T20:18:46.179Z,100198.06
2023-05-14T20:21:13.307Z,100200.69
2023-05-14T20:23:40.589Z,100195.41
2023-05-14T20:26:07.713Z,100183.09
2023-05-14T20:28:34.816Z,100209.50
2023-05-14T20:31:04.038Z,100191.88
2023-05-14T20:33:31.310Z,100205.97
2023-05-14T20:35:58.520Z,100204.19
2023-05-14T20:38:29.345Z,100205.91
2023-05-14T20:40:57.020Z,100191.84
2023-05-14T20:43:24.096Z,100206.78
2023-05-14T20:45:51.141Z,100205.03
2023-05-14T20:48:20.206Z,100201.47
2023-05-14T20:50:47.474Z,100200.56
2023-05-14T20:53:14.773Z,100205.81
2023-05-14T20:55:42.098Z,100211.09
2023-05-14T20:58:09.238Z,100206.69
2023-05-14T21:00:36.341Z,100204.84
2023-05-14T21:03:03.733Z,100218.91
2023-05-14T21:05:30.872Z,100215.34
2023-05-14T21:07:57.874Z,100211.84
2023-05-14T21:10:25.725Z,100197.69
2023-05-14T21:12:53.227Z,100215.34
2023-05-14T21:15:20.730Z,100203.84
2023-05-14T21:17:47.779Z,100210.00
2023-05-14T21:20:15.717Z,100192.38
2023-05-14T21:22:42.772Z,100193.28
2023-05-14T21:25:10.091Z,100205.59
2023-05-14T21:27:37.398Z,100200.28
2023-05-14T21:30:04.937Z,100205.59
2023-05-14T21:32:33.580Z,100202.03
2023-05-14T21:35:00.950Z,100207.31
2023-05-14T21:37:28.407Z,100179.09
2023-05-14T21:39:55.607Z,100201.13
2023-05-14T21:42:22.818Z,100200.16
2023-05-14T21:44:50.012Z,100194.00
2023-05-14T21:47:17.281Z,100195.69
2023-05-14T21:49:44.355Z,100214.19
2023-05-14T21:52:11.382Z,100206.28
2023-05-14T21:54:38.545Z,100195.69
2023-05-14T21:57:06.572Z,100208.84
2023-05-14T21:59:34.189Z,100201.88
2023-05-14T22:04:31.220Z,100180.72
2023-05-14T22:06:58.497Z,100200.09
2023-05-14T22:09:26.017Z,100203.59
2023-05-14T22:11:53.132Z,100203.56
2023-05-14T22:14:20.135Z,100208.00
2023-05-14T22:16:47.497Z,100192.97
2023-05-14T22:19:16.708Z,100208.84
2023-05-14T22:21:43.887Z,100185.03
2023-05-14T22:24:10.977Z,100212.31
2023-05-14T22:26:37.986Z,100199.09
2023-05-14T22:29:05.153Z,100199.06
2023-05-14T22:31:32.249Z,100206.97
2023-05-14T22:33:59.326Z,100203.50
2023-05-14T22:36:26.458Z,100187.56
2023-05-14T22:38:53.549Z,100204.34
2023-05-14T22:41:22.296Z,100210.47
2023-05-14T22:43:50.967Z,100206.97
2023-05-14T22:46:18.202Z,100205.22
2023-05-14T22:48:45.341Z,100207.88
2023-05-14T22:51:12.747Z,100215.72
2023-05-14T22:53:39.864Z,100202.53
2023-05-14T22:56:07.136Z,100178.72
2023-05-14T22:58:34.129Z,100206.06
2023-05-14T23:01:05.348Z,100213.94
2023-05-14T23:03:32.542Z,100213.91
2023-05-14T23:05:59.663Z,100198.06
2023-05-14T23:08:26.715Z,100213.84
2023-05-14T23:10:53.934Z,100175.88
2023-05-14T23:13:21.249Z,100210.31
2023-05-14T23:15:48.906Z,100201.44
2023-05-14T23:18:16.090Z,100204.09
2023-05-14T23:20:43.901Z,100208.50
2023-05-14T23:23:11.366Z,100209.31
2023-05-14T23:25:38.545Z,100218.94
2023-05-14T23:28:05.814Z,100216.28
2023-05-14T23:30:32.828Z,100222.38
2023-05-14T23:33:00.373Z,100204.75
2023-05-14T23:35:27.760Z,100187.19
2023-05-14T23:37:55.436Z,100194.13
2023-05-14T23:40:22.543Z,100217.06
2023-05-14T23:42:49.607Z,100218.78
2023-05-14T23:45:17.077Z,100192.28
2023-05-14T23:47:44.272Z,100166.72
2023-05-14T23:50:11.520Z,100218.72
2023-05-14T23:52:38.536Z,100216.91
2023-05-14T23:55:06.550Z,100212.47
2023-05-14T23:57:33.829Z,100213.31
